Terminal Aerodrome Forecast
Issued by NWS Green Bay, WI

Home | Current Version | Previous Version | Text Only | Print | Product List | Glossary Off
Versions: 1 2 3 4 5 6 7 8 9 10 11 12 13 14 15 16 17 18 19 20

000
FTUS43 KGRB 262328
TAFGRB
TAF
KGRB 262328Z 2700/2724 26012G18KT P6SM SCT050 BKN080
     FM271400 27014G22KT P6SM BKN040
     FM271800 28013G21KT P6SM -SHRA OVC025
     FM272100 27011G19KT 5SM -SHRA BR OVC015=

USA.gov is the U.S. government's official web portal to all federal, state and local government web resources and services.